Sinclair City, Texas
Current Conditions -  °F | °C
As of 12:55 PM on Tuesday 27 Jan 2015 (Local Time) from KRFI Reporting Station
Clear Clear  
Wind Chill: 73°   Ceiling: Unl
Heat Index: 73°   Visibility: 10mi
Dew Point: 39°   Wind: 0mph
Humidity: 29%   Direction: NA
Pressure: 30.15"   Gusts: NA
Location:  32.0774°N, 95.1103°W
Report Text: KRFI 271855Z AUTO 00000KT 10SM CLR 23/04 A3015 RMK AO2 T02300041
Loading
Personal Weather Stations






























Interactive Weather Map New forecast layout! Learn more

10-Day Weather Forecast

Advertisements
Track Severe Weather on mobile